createdAt,value
2023-01-19T00:01:38.105Z,63.53
2023-01-19T00:04:08.498Z,64.20
2023-01-19T00:06:36.208Z,63.40
2023-01-19T00:09:02.878Z,63.11
2023-01-19T00:11:32.554Z,64.42
2023-01-19T00:14:02.556Z,63.48
2023-01-19T00:16:33.244Z,63.62
2023-01-19T00:19:00.065Z,63.42
2023-01-19T00:21:36.556Z,63.59
2023-01-19T00:24:07.625Z,62.90
2023-01-19T00:26:34.365Z,63.03
2023-01-19T00:29:03.043Z,62.28
2023-01-19T00:31:30.402Z,63.72
2023-01-19T00:33:58.963Z,63.40
2023-01-19T00:36:26.576Z,63.40
2023-01-19T00:38:56.746Z,64.34
2023-01-19T00:41:45.952Z,64.59
2023-01-19T00:44:13.881Z,64.77
2023-01-19T00:46:41.284Z,65.49
2023-01-19T00:49:09.260Z,65.10
2023-01-19T00:51:36.180Z,65.35
2023-01-19T00:54:07.611Z,65.37
2023-01-19T00:56:36.049Z,64.73
2023-01-19T00:59:06.683Z,65.49
2023-01-19T01:01:45.934Z,65.25
2023-01-19T01:04:14.290Z,65.45
2023-01-19T01:06:40.854Z,65.90
2023-01-19T01:09:12.107Z,66.12
2023-01-19T01:11:45.303Z,65.82
2023-01-19T01:14:12.726Z,64.66
2023-01-19T01:16:39.650Z,65.31
2023-01-19T01:19:06.334Z,65.28
2023-01-19T01:21:34.787Z,64.75
2023-01-19T01:24:01.694Z,65.17
2023-01-19T01:26:28.415Z,65.06
2023-01-19T01:28:55.019Z,64.72
2023-01-19T01:31:22.227Z,65.48
2023-01-19T01:33:48.920Z,65.37
2023-01-19T01:36:15.478Z,65.59
2023-01-19T01:38:43.347Z,66.10
2023-01-19T01:41:12.567Z,66.15
2023-01-19T01:43:45.007Z,66.37
2023-01-19T01:46:12.460Z,66.21
2023-01-19T01:48:41.201Z,65.70
2023-01-19T01:51:29.650Z,66.63
2023-01-19T01:54:08.464Z,66.47
2023-01-19T01:56:36.649Z,65.88
2023-01-19T01:59:06.903Z,66.41
2023-01-19T02:04:49.687Z,66.41
2023-01-19T02:07:40.723Z,66.00
2023-01-19T02:10:29.030Z,66.16
2023-01-19T02:13:24.745Z,65.32
2023-01-19T02:16:00.037Z,64.65
2023-01-19T02:18:55.782Z,64.02
2023-01-19T02:21:38.345Z,63.84
2023-01-19T02:24:06.013Z,64.76
2023-01-19T02:26:44.809Z,64.65
2023-01-19T02:29:21.479Z,64.84
2023-01-19T02:34:30.754Z,64.82
2023-01-19T02:37:08.295Z,64.54
2023-01-19T02:39:39.134Z,64.23
2023-01-19T02:42:12.691Z,64.17
2023-01-19T02:44:44.241Z,64.78
2023-01-19T02:47:18.912Z,64.12
2023-01-19T02:50:00.186Z,64.09
2023-01-19T02:52:33.218Z,65.19
2023-01-19T02:55:18.687Z,64.37
2023-01-19T02:57:53.281Z,64.26
2023-01-19T03:00:24.157Z,63.94
2023-01-19T03:03:10.314Z,64.55
2023-01-19T03:05:50.832Z,64.01
2023-01-19T03:08:23.531Z,64.05
2023-01-19T03:10:56.960Z,64.68
2023-01-19T03:13:31.100Z,64.47
2023-01-19T03:16:05.577Z,64.58
2023-01-19T03:18:33.896Z,64.83
2023-01-19T03:21:03.116Z,63.84
2023-01-19T03:23:32.038Z,64.04
2023-01-19T03:26:00.221Z,65.04
2023-01-19T03:28:28.898Z,64.26
2023-01-19T03:31:12.803Z,64.69
2023-01-19T03:33:42.077Z,64.10
2023-01-19T03:36:13.052Z,64.33
2023-01-19T03:38:42.441Z,64.35
2023-01-19T03:41:11.609Z,64.48
2023-01-19T03:43:39.924Z,65.05
2023-01-19T03:46:07.380Z,64.76
2023-01-19T03:48:34.857Z,64.05
2023-01-19T03:51:06.873Z,64.23
2023-01-19T03:53:33.534Z,64.50
2023-01-19T03:56:00.382Z,64.98
2023-01-19T03:58:27.187Z,64.93
2023-01-19T04:00:53.977Z,64.70
2023-01-19T04:03:20.588Z,65.17
2023-01-19T04:05:47.427Z,65.65
2023-01-19T04:08:14.080Z,65.75
2023-01-19T04:10:40.707Z,65.58
2023-01-19T04:13:07.357Z,66.05
2023-01-19T04:15:34.073Z,65.73
2023-01-19T04:18:01.153Z,65.82
2023-01-19T04:20:28.339Z,65.22
2023-01-19T04:23:01.540Z,65.66
2023-01-19T04:25:28.837Z,65.35
2023-01-19T04:27:58.417Z,64.99
2023-01-19T04:30:27.873Z,65.03
2023-01-19T04:32:56.359Z,65.58
2023-01-19T04:35:23.769Z,64.71
2023-01-19T04:37:50.426Z,64.84
2023-01-19T04:40:17.178Z,64.78
2023-01-19T04:42:45.055Z,65.01
2023-01-19T04:45:12.304Z,65.45
2023-01-19T04:47:39.290Z,65.69
2023-01-19T04:50:07.041Z,65.59
2023-01-19T04:52:36.747Z,65.37
2023-01-19T04:55:06.856Z,66.07
2023-01-19T04:57:33.626Z,65.07
2023-01-19T05:00:00.221Z,65.24
2023-01-19T05:02:29.093Z,64.96
2023-01-19T05:05:01.048Z,65.24
2023-01-19T05:07:33.641Z,65.13
2023-01-19T05:10:01.699Z,65.30
2023-01-19T05:12:29.031Z,64.81
2023-01-19T05:15:18.698Z,64.41
2023-01-19T05:17:48.065Z,65.17
2023-01-19T05:20:27.730Z,65.35
2023-01-19T05:22:54.431Z,64.79
2023-01-19T05:25:20.956Z,64.98
2023-01-19T05:27:56.711Z,64.68
2023-01-19T05:30:23.324Z,64.93
2023-01-19T05:32:58.354Z,65.91
2023-01-19T05:35:35.584Z,66.05
2023-01-19T05:38:03.888Z,66.69
2023-01-19T05:40:30.892Z,65.81
2023-01-19T05:43:02.305Z,65.36
2023-01-19T05:45:29.907Z,65.36
2023-01-19T05:47:57.383Z,65.72
2023-01-19T05:50:25.354Z,66.94
2023-01-19T05:52:57.438Z,66.52
2023-01-19T05:55:26.300Z,66.21
2023-01-19T05:57:54.075Z,65.78
2023-01-19T06:00:21.243Z,67.14
2023-01-19T06:02:49.541Z,66.91
2023-01-19T06:05:16.907Z,66.81
2023-01-19T06:07:45.948Z,65.97
2023-01-19T06:10:18.696Z,65.93
2023-01-19T06:12:46.365Z,66.03
2023-01-19T06:15:14.501Z,65.58
2023-01-19T06:17:41.261Z,66.19
2023-01-19T06:20:08.252Z,67.01
2023-01-19T06:22:35.345Z,66.90
2023-01-19T06:25:05.751Z,67.27
2023-01-19T06:27:32.837Z,67.09
2023-01-19T06:29:59.632Z,66.02
2023-01-19T06:32:26.874Z,66.87
2023-01-19T06:34:54.179Z,67.15
2023-01-19T06:37:21.550Z,66.85
2023-01-19T06:39:48.458Z,66.74
2023-01-19T06:42:15.517Z,66.88
2023-01-19T06:44:49.467Z,65.97
2023-01-19T06:47:16.690Z,65.25
2023-01-19T06:49:43.865Z,65.44
2023-01-19T06:52:17.683Z,65.30
2023-01-19T06:54:45.466Z,65.79
2023-01-19T06:57:13.225Z,65.92
2023-01-19T06:59:40.032Z,65.54
2023-01-19T07:02:27.557Z,65.79
2023-01-19T07:04:53.421Z,65.96
2023-01-19T07:07:20.021Z,65.71
2023-01-19T07:09:46.645Z,65.35
2023-01-19T07:12:14.903Z,64.64
2023-01-19T07:14:42.504Z,65.07
2023-01-19T07:17:09.207Z,66.49
2023-01-19T07:19:36.137Z,65.92
2023-01-19T07:22:03.278Z,66.37
2023-01-19T07:24:34.260Z,66.80
2023-01-19T07:27:01.018Z,67.07
2023-01-19T07:29:27.696Z,66.46
2023-01-19T07:31:54.814Z,66.88
2023-01-19T07:34:21.662Z,66.21
2023-01-19T07:36:48.583Z,66.14
2023-01-19T07:39:15.190Z,65.81
2023-01-19T07:41:41.870Z,66.00
2023-01-19T07:44:08.894Z,65.15
2023-01-19T07:46:38.625Z,65.84
2023-01-19T07:49:06.284Z,66.15
2023-01-19T07:51:32.941Z,66.20
2023-01-19T07:53:59.602Z,66.13
2023-01-19T07:56:27.898Z,65.61
2023-01-19T07:58:54.766Z,66.10
2023-01-19T08:01:21.798Z,65.90
2023-01-19T08:03:49.100Z,66.21
2023-01-19T08:06:22.993Z,65.96
2023-01-19T08:08:49.863Z,66.27
2023-01-19T08:11:16.890Z,65.59
2023-01-19T08:13:46.589Z,65.46
2023-01-19T08:16:13.253Z,65.14
2023-01-19T08:18:39.966Z,64.35
2023-01-19T08:21:06.727Z,63.66
2023-01-19T08:23:33.356Z,63.90
2023-01-19T08:26:00.138Z,63.77
2023-01-19T08:28:26.752Z,64.47
2023-01-19T08:30:56.440Z,63.14
2023-01-19T08:33:25.276Z,62.77
2023-01-19T08:35:53.211Z,62.45
2023-01-19T08:38:20.178Z,62.91
2023-01-19T08:40:46.786Z,62.07
2023-01-19T08:43:15.321Z,62.44
2023-01-19T08:45:48.217Z,61.79
2023-01-19T08:48:15.903Z,61.60
2023-01-19T08:50:42.535Z,61.00
2023-01-19T08:53:10.073Z,61.62
2023-01-19T08:55:37.345Z,61.14
2023-01-19T08:58:04.618Z,61.33
2023-01-19T09:00:35.347Z,61.21
2023-01-19T09:03:04.170Z,61.59
2023-01-19T09:05:38.858Z,60.98
2023-01-19T09:08:08.216Z,60.62
2023-01-19T09:10:38.096Z,59.72
2023-01-19T09:13:05.842Z,60.24
2023-01-19T09:15:34.046Z,61.08
2023-01-19T09:18:01.149Z,60.32
2023-01-19T09:20:31.148Z,60.84
2023-01-19T09:22:58.449Z,60.71
2023-01-19T09:25:25.278Z,59.69
2023-01-19T09:27:52.181Z,59.82
2023-01-19T09:30:19.198Z,59.51
2023-01-19T09:32:45.884Z,59.17
2023-01-19T09:35:12.680Z,59.12
2023-01-19T09:37:45.734Z,58.52
2023-01-19T09:40:12.653Z,58.92
2023-01-19T09:42:51.221Z,57.68
2023-01-19T09:45:20.216Z,57.53
2023-01-19T09:47:48.667Z,57.67
2023-01-19T09:50:26.351Z,57.93
2023-01-19T09:53:01.526Z,56.73
2023-01-19T09:55:32.525Z,56.16
2023-01-19T09:57:59.604Z,55.85
2023-01-19T10:00:28.869Z,56.09
2023-01-19T10:02:55.563Z,55.72
2023-01-19T10:05:42.469Z,55.27
2023-01-19T10:08:27.941Z,54.37
2023-01-19T10:10:55.502Z,52.86
2023-01-19T10:13:30.319Z,51.42
2023-01-19T10:16:15.876Z,49.87
2023-01-19T10:18:51.684Z,48.85
2023-01-19T10:21:38.596Z,48.70
2023-01-19T10:24:12.120Z,49.53
2023-01-19T10:26:42.622Z,52.03
2023-01-19T10:29:18.219Z,53.12
2023-01-19T10:31:46.158Z,55.30
2023-01-19T10:34:20.937Z,55.24
2023-01-19T10:36:52.540Z,55.15
2023-01-19T10:39:19.299Z,56.19
2023-01-19T10:41:49.349Z,57.74
2023-01-19T10:44:36.276Z,57.17
2023-01-19T10:47:04.749Z,57.45
2023-01-19T10:49:37.542Z,58.50
2023-01-19T10:52:06.064Z,58.59
2023-01-19T10:54:34.054Z,58.97
2023-01-19T10:57:05.194Z,58.48
2023-01-19T10:59:34.913Z,58.87
2023-01-19T11:02:17.958Z,58.55
2023-01-19T11:04:50.160Z,59.05
2023-01-19T11:07:22.203Z,59.04
2023-01-19T11:09:49.198Z,58.63
2023-01-19T11:12:20.716Z,59.23
2023-01-19T11:14:47.781Z,58.72
2023-01-19T11:17:25.472Z,59.02
2023-01-19T11:19:56.259Z,59.35
2023-01-19T11:22:27.078Z,59.08
2023-01-19T11:25:04.830Z,59.19
2023-01-19T11:27:34.701Z,59.22
2023-01-19T11:30:01.853Z,58.48
2023-01-19T11:32:29.168Z,59.38
2023-01-19T11:34:55.872Z,59.72
2023-01-19T11:37:29.845Z,60.14
2023-01-19T11:39:58.113Z,60.07
2023-01-19T11:42:25.210Z,61.61
2023-01-19T11:44:51.822Z,60.60
2023-01-19T11:47:36.122Z,60.26
2023-01-19T11:50:07.281Z,60.81
2023-01-19T11:52:46.074Z,61.06
2023-01-19T11:55:37.076Z,60.80
2023-01-19T11:58:04.775Z,60.75
2023-01-19T12:00:38.420Z,59.92
2023-01-19T12:03:05.134Z,60.43
2023-01-19T12:05:34.065Z,60.47
2023-01-19T12:08:05.582Z,60.61
2023-01-19T12:10:36.542Z,61.45
2023-01-19T12:13:03.664Z,61.28
2023-01-19T12:15:30.246Z,60.96
2023-01-19T12:17:59.084Z,61.31
2023-01-19T12:20:35.956Z,61.18
2023-01-19T12:23:13.993Z,60.66
2023-01-19T12:25:44.040Z,61.45
2023-01-19T12:28:14.039Z,61.49
2023-01-19T12:30:41.872Z,62.12
2023-01-19T12:33:22.404Z,62.03
2023-01-19T12:36:00.933Z,61.90
2023-01-19T12:38:37.887Z,61.70
2023-01-19T12:41:19.877Z,63.25
2023-01-19T12:44:09.894Z,63.04
2023-01-19T12:46:39.574Z,64.04
2023-01-19T12:49:27.010Z,63.73
2023-01-19T12:52:14.822Z,64.16
2023-01-19T12:54:42.677Z,64.21
2023-01-19T12:57:25.134Z,63.78
2023-01-19T12:59:59.052Z,63.43
2023-01-19T13:02:28.695Z,63.82
2023-01-19T13:05:12.780Z,64.22
2023-01-19T13:07:58.128Z,64.64
2023-01-19T13:10:43.679Z,64.68
2023-01-19T13:13:19.578Z,64.56
2023-01-19T13:15:50.744Z,65.01
2023-01-19T13:18:24.826Z,64.62
2023-01-19T13:20:58.269Z,64.69
2023-01-19T13:23:29.085Z,65.34
2023-01-19T13:26:01.497Z,65.32
2023-01-19T13:28:45.180Z,65.25
2023-01-19T13:31:13.342Z,65.37
2023-01-19T13:33:53.264Z,64.72
2023-01-19T13:36:22.821Z,64.68
2023-01-19T13:38:51.011Z,63.64
2023-01-19T13:41:20.262Z,64.00
2023-01-19T13:43:47.872Z,63.53
2023-01-19T13:46:17.403Z,64.26
2023-01-19T13:48:52.889Z,64.15
2023-01-19T13:51:20.072Z,64.64
2023-01-19T13:53:59.128Z,64.85
2023-01-19T13:56:27.788Z,63.82
2023-01-19T13:59:02.307Z,64.21
2023-01-19T14:01:30.224Z,64.71
2023-01-19T14:03:57.145Z,64.59
2023-01-19T14:06:47.302Z,64.93
2023-01-19T14:09:16.926Z,65.64
2023-01-19T14:11:44.497Z,65.77
2023-01-19T14:14:24.044Z,65.75
2023-01-19T14:16:50.690Z,66.74
2023-01-19T14:19:17.830Z,65.89
2023-01-19T14:21:46.113Z,66.25
2023-01-19T14:24:20.575Z,66.25
2023-01-19T14:26:48.470Z,67.47
2023-01-19T14:29:32.943Z,68.49
2023-01-19T14:32:17.095Z,68.54
2023-01-19T14:34:46.959Z,70.07
2023-01-19T14:37:23.038Z,69.26
2023-01-19T14:39:51.291Z,69.12
2023-01-19T14:42:23.962Z,69.49
2023-01-19T14:44:52.104Z,69.58
2023-01-19T14:47:25.677Z,69.00
2023-01-19T14:49:52.753Z,70.61
2023-01-19T14:52:19.280Z,70.43
2023-01-19T14:54:46.128Z,70.80
2023-01-19T14:57:15.824Z,71.36
2023-01-19T14:59:47.412Z,72.20
2023-01-19T15:02:14.105Z,71.77
2023-01-19T15:04:41.871Z,71.46
2023-01-19T15:07:15.817Z,72.22
2023-01-19T15:09:42.444Z,72.82
2023-01-19T15:12:11.657Z,73.69
2023-01-19T15:14:38.420Z,73.85
2023-01-19T15:17:04.985Z,73.77
2023-01-19T15:19:31.571Z,73.70
2023-01-19T15:21:58.315Z,74.60
2023-01-19T15:24:25.029Z,75.14
2023-01-19T15:26:51.596Z,75.04
2023-01-19T15:29:21.479Z,75.07
2023-01-19T15:31:48.355Z,74.48
2023-01-19T15:34:15.051Z,74.12
2023-01-19T15:36:42.649Z,75.55
2023-01-19T15:39:10.650Z,75.53
2023-01-19T15:41:38.444Z,76.12
2023-01-19T15:44:06.291Z,74.77
2023-01-19T15:46:33.327Z,74.93
2023-01-19T15:49:00.654Z,75.24
2023-01-19T15:51:30.264Z,76.46
2023-01-19T15:53:56.920Z,75.94
2023-01-19T15:56:24.901Z,75.30
2023-01-19T15:58:54.741Z,75.32
2023-01-19T16:01:22.744Z,75.05
2023-01-19T16:03:50.121Z,75.24
2023-01-19T16:06:18.019Z,74.95
2023-01-19T16:08:45.150Z,74.65
2023-01-19T16:11:13.129Z,75.01
2023-01-19T16:13:40.164Z,75.37
2023-01-19T16:16:08.634Z,75.42
2023-01-19T16:18:35.340Z,74.96
2023-01-19T16:21:01.998Z,74.63
2023-01-19T16:23:28.667Z,75.02
2023-01-19T16:25:59.631Z,75.19
2023-01-19T16:28:27.001Z,75.01
2023-01-19T16:30:53.829Z,74.52
2023-01-19T16:33:20.497Z,75.57
2023-01-19T16:35:47.183Z,76.10
2023-01-19T16:38:17.325Z,76.23
2023-01-19T16:40:45.389Z,76.01
2023-01-19T16:43:12.904Z,76.24
2023-01-19T16:46:01.722Z,76.08
2023-01-19T16:48:28.898Z,75.81
2023-01-19T16:51:00.376Z,76.88
2023-01-19T16:53:27.675Z,76.39
2023-01-19T16:55:54.763Z,76.79
2023-01-19T16:58:21.801Z,77.27
2023-01-19T17:00:48.502Z,77.49
2023-01-19T17:03:22.540Z,77.99
2023-01-19T17:05:50.604Z,77.13
2023-01-19T17:08:20.492Z,77.75
2023-01-19T17:10:47.747Z,76.99
2023-01-19T17:13:16.788Z,78.09
2023-01-19T17:15:44.075Z,78.23
2023-01-19T17:18:10.735Z,78.45
2023-01-19T17:20:37.438Z,77.65
2023-01-19T17:23:04.181Z,77.57
2023-01-19T17:25:30.774Z,77.74
2023-01-19T17:27:58.536Z,78.01
2023-01-19T17:30:25.378Z,76.92
2023-01-19T17:32:52.085Z,76.13
2023-01-19T17:35:18.703Z,77.33
2023-01-19T17:37:45.319Z,77.98
2023-01-19T17:40:14.604Z,77.22
2023-01-19T17:42:41.921Z,76.98
2023-01-19T17:45:10.900Z,77.06
2023-01-19T17:47:38.129Z,77.99
2023-01-19T17:50:05.372Z,77.57
2023-01-19T17:52:34.952Z,76.79
2023-01-19T17:55:01.611Z,77.26
2023-01-19T17:57:28.186Z,77.32
2023-01-19T17:59:54.803Z,77.92
2023-01-19T18:02:24.501Z,77.71
2023-01-19T18:04:55.071Z,77.67
2023-01-19T18:07:21.767Z,77.36
2023-01-19T18:09:50.498Z,77.58
2023-01-19T18:12:18.852Z,78.19
2023-01-19T18:14:45.481Z,77.86
2023-01-19T18:17:12.107Z,77.21
2023-01-19T18:19:38.671Z,77.25
2023-01-19T18:22:12.665Z,77.81
2023-01-19T18:24:39.279Z,77.59
2023-01-19T18:27:06.507Z,77.49
2023-01-19T18:29:33.097Z,76.98
2023-01-19T18:31:59.690Z,77.35
2023-01-19T18:34:26.358Z,77.82
2023-01-19T18:36:52.953Z,77.67
2023-01-19T18:39:19.550Z,77.50
2023-01-19T18:41:46.231Z,77.27
2023-01-19T18:44:12.918Z,77.71
2023-01-19T18:46:39.743Z,77.64
2023-01-19T18:49:06.431Z,77.62
2023-01-19T18:51:33.263Z,77.23
2023-01-19T18:54:00.065Z,76.51
2023-01-19T18:56:26.804Z,76.88
2023-01-19T18:58:53.625Z,77.12
2023-01-19T19:01:23.465Z,76.63
2023-01-19T19:03:50.432Z,76.48
2023-01-19T19:06:20.557Z,75.75
2023-01-19T19:08:50.958Z,76.81
2023-01-19T19:11:18.422Z,76.15
2023-01-19T19:13:45.043Z,76.24
2023-01-19T19:16:12.908Z,76.18
2023-01-19T19:18:39.980Z,75.91
2023-01-19T19:21:07.598Z,75.67
2023-01-19T19:23:34.779Z,76.34
2023-01-19T19:26:03.099Z,75.96
2023-01-19T19:28:29.720Z,75.90
2023-01-19T19:31:07.510Z,74.92
2023-01-19T19:33:34.876Z,74.34
2023-01-19T19:36:01.668Z,74.52
2023-01-19T19:38:28.967Z,74.24
2023-01-19T19:40:57.795Z,75.98
2023-01-19T19:43:24.806Z,75.71
2023-01-19T19:45:59.521Z,74.78
2023-01-19T19:48:38.146Z,75.46
2023-01-19T19:51:18.106Z,76.18
2023-01-19T19:53:46.102Z,76.18
2023-01-19T19:56:15.642Z,75.87
2023-01-19T19:58:45.186Z,75.97
2023-01-19T20:01:19.793Z,76.67
2023-01-19T20:03:46.519Z,76.94
2023-01-19T20:06:21.433Z,77.57
2023-01-19T20:08:48.604Z,77.93
2023-01-19T20:11:17.005Z,77.15
2023-01-19T20:13:44.292Z,77.14
2023-01-19T20:16:12.738Z,78.09
2023-01-19T20:18:42.262Z,77.66
2023-01-19T20:21:36.060Z,77.12
2023-01-19T20:24:04.875Z,77.90
2023-01-19T20:26:32.963Z,76.62
2023-01-19T20:29:04.780Z,76.40
2023-01-19T20:31:33.933Z,76.38
2023-01-19T20:34:01.415Z,75.93
2023-01-19T20:36:29.026Z,75.75
2023-01-19T20:38:56.485Z,75.74
2023-01-19T20:41:23.343Z,75.84
2023-01-19T20:43:50.166Z,75.75
2023-01-19T20:46:16.865Z,76.18
2023-01-19T20:48:43.482Z,74.65
2023-01-19T20:51:12.890Z,74.47
2023-01-19T20:53:47.813Z,74.65
2023-01-19T20:56:17.122Z,75.91
2023-01-19T20:58:43.683Z,75.03
2023-01-19T21:01:16.525Z,75.47
2023-01-19T21:03:43.334Z,75.08
2023-01-19T21:06:10.347Z,74.97
2023-01-19T21:08:37.516Z,76.70
2023-01-19T21:11:04.845Z,76.02
2023-01-19T21:13:31.732Z,77.08
2023-01-19T21:15:58.705Z,77.04
2023-01-19T21:18:30.177Z,77.48
2023-01-19T21:20:59.849Z,77.40
2023-01-19T21:23:28.345Z,77.00
2023-01-19T21:25:59.356Z,77.05
2023-01-19T21:28:26.865Z,76.08
2023-01-19T21:30:53.966Z,75.98
2023-01-19T21:33:21.194Z,77.27
2023-01-19T21:35:55.240Z,75.96
2023-01-19T21:38:22.713Z,75.22
2023-01-19T21:40:50.527Z,75.75
2023-01-19T21:43:21.625Z,76.72
2023-01-19T21:45:48.958Z,75.24
2023-01-19T21:48:15.940Z,75.48
2023-01-19T21:50:42.988Z,74.88
2023-01-19T21:53:12.709Z,74.71
2023-01-19T21:55:43.027Z,74.66
2023-01-19T21:58:09.663Z,75.06
2023-01-19T22:00:36.309Z,74.44
2023-01-19T22:03:04.495Z,74.75
2023-01-19T22:05:36.704Z,74.24
2023-01-19T22:08:04.204Z,74.97
2023-01-19T22:10:30.784Z,75.27
2023-01-19T22:12:57.482Z,74.88
2023-01-19T22:15:24.100Z,74.09
2023-01-19T22:17:50.711Z,74.66
2023-01-19T22:20:19.554Z,75.33
2023-01-19T22:22:46.315Z,74.99
2023-01-19T22:25:13.138Z,75.57
2023-01-19T22:27:39.774Z,75.19
2023-01-19T22:30:06.678Z,74.67
2023-01-19T22:32:49.171Z,74.39
2023-01-19T22:35:16.475Z,74.22
2023-01-19T22:37:43.002Z,74.23
2023-01-19T22:40:09.996Z,73.22
2023-01-19T22:42:36.606Z,72.41
2023-01-19T22:45:03.273Z,72.26
2023-01-19T22:47:30.032Z,72.10
2023-01-19T22:49:56.690Z,72.31
2023-01-19T22:52:23.260Z,71.18
2023-01-19T22:54:49.909Z,72.09
2023-01-19T22:57:16.482Z,71.49
2023-01-19T22:59:43.739Z,71.24
2023-01-19T23:02:10.418Z,70.31
2023-01-19T23:04:37.240Z,71.96
2023-01-19T23:07:03.848Z,72.43
2023-01-19T23:09:30.615Z,71.51
2023-01-19T23:11:57.296Z,72.08
2023-01-19T23:14:23.991Z,71.29
2023-01-19T23:16:50.611Z,71.58
2023-01-19T23:19:17.713Z,71.89
2023-01-19T23:21:44.601Z,71.10
2023-01-19T23:24:11.883Z,70.95
2023-01-19T23:26:38.786Z,72.37
2023-01-19T23:29:11.165Z,72.38
2023-01-19T23:31:39.008Z,72.92
2023-01-19T23:34:07.619Z,72.88
2023-01-19T23:36:35.375Z,72.62
2023-01-19T23:39:05.864Z,73.48
2023-01-19T23:41:35.132Z,73.61
2023-01-19T23:44:01.909Z,73.39
2023-01-19T23:46:29.599Z,73.00
2023-01-19T23:48:56.260Z,71.95
2023-01-19T23:51:24.435Z,71.79
2023-01-19T23:53:51.901Z,72.83
2023-01-19T23:56:23.250Z,72.40
2023-01-19T23:59:01.804Z,71.74
